sensor_id;sensor_type;location;lat;lon;timestamp;temperature;humidity
76104;HTU21D;64831;44.870;37.336;2023-04-28T00:01:28;14.40;68.83
76104;HTU21D;64831;44.870;37.336;2023-04-28T00:03:53;14.40;68.83
76104;HTU21D;64831;44.870;37.336;2023-04-28T00:06:21;14.42;69.04
76104;HTU21D;64831;44.870;37.336;2023-04-28T00:08:47;14.44;68.78
76104;HTU21D;64831;44.870;37.336;2023-04-28T00:11:13;14.45;68.82
76104;HTU21D;64831;44.870;37.336;2023-04-28T00:13:39;14.48;68.87
76104;HTU21D;64831;44.870;37.336;2023-04-28T00:16:05;14.53;68.81
76104;HTU21D;64831;44.870;37.336;2023-04-28T00:18:31;14.57;68.83
76104;HTU21D;64831;44.870;37.336;2023-04-28T00:20:58;14.64;68.91
76104;HTU21D;64831;44.870;37.336;2023-04-28T00:23:24;14.71;68.82
76104;HTU21D;64831;44.870;37.336;2023-04-28T00:25:54;14.78;68.94
76104;HTU21D;64831;44.870;37.336;2023-04-28T00:28:20;14.84;69.47
76104;HTU21D;64831;44.870;37.336;2023-04-28T00:30:46;14.86;68.87
76104;HTU21D;64831;44.870;37.336;2023-04-28T00:33:12;14.88;68.60
76104;HTU21D;64831;44.870;37.336;2023-04-28T00:35:39;14.92;68.39
76104;HTU21D;64831;44.870;37.336;2023-04-28T00:38:06;14.93;68.33
76104;HTU21D;64831;44.870;37.336;2023-04-28T00:40:36;14.95;68.36
76104;HTU21D;64831;44.870;37.336;2023-04-28T00:43:03;14.98;68.18
76104;HTU21D;64831;44.870;37.336;2023-04-28T00:45:29;15.00;68.17
76104;HTU21D;64831;44.870;37.336;2023-04-28T00:47:56;15.03;68.30
76104;HTU21D;64831;44.870;37.336;2023-04-28T00:50:23;15.07;68.25
76104;HTU21D;64831;44.870;37.336;2023-04-28T00:52:50;15.09;67.99
76104;HTU21D;64831;44.870;37.336;2023-04-28T00:55:17;15.10;67.91
76104;HTU21D;64831;44.870;37.336;2023-04-28T00:57:43;15.13;67.94
76104;HTU21D;64831;44.870;37.336;2023-04-28T01:00:10;15.15;67.75
76104;HTU21D;64831;44.870;37.336;2023-04-28T01:02:36;15.17;67.69
76104;HTU21D;64831;44.870;37.336;2023-04-28T01:05:02;15.18;67.68
76104;HTU21D;64831;44.870;37.336;2023-04-28T01:07:28;15.23;67.69
76104;HTU21D;64831;44.870;37.336;2023-04-28T01:09:55;15.25;67.70
76104;HTU21D;64831;44.870;37.336;2023-04-28T01:12:26;15.23;67.63
76104;HTU21D;64831;44.870;37.336;2023-04-28T01:14:54;15.16;67.92
76104;HTU21D;64831;44.870;37.336;2023-04-28T01:17:21;15.11;68.20
76104;HTU21D;64831;44.870;37.336;2023-04-28T01:19:47;15.09;68.10
76104;HTU21D;64831;44.870;37.336;2023-04-28T01:22:13;15.06;68.27
76104;HTU21D;64831;44.870;37.336;2023-04-28T01:24:42;15.01;68.16
76104;HTU21D;64831;44.870;37.336;2023-04-28T01:27:09;14.97;68.20
76104;HTU21D;64831;44.870;37.336;2023-04-28T01:29:38;14.89;68.27
76104;HTU21D;64831;44.870;37.336;2023-04-28T01:32:04;14.84;68.15
76104;HTU21D;64831;44.870;37.336;2023-04-28T01:34:32;14.83;68.21
76104;HTU21D;64831;44.870;37.336;2023-04-28T01:36:58;14.82;68.24
76104;HTU21D;64831;44.870;37.336;2023-04-28T01:39:23;14.84;68.11
76104;HTU21D;64831;44.870;37.336;2023-04-28T01:41:49;14.88;68.07
76104;HTU21D;64831;44.870;37.336;2023-04-28T01:44:15;14.89;68.17
76104;HTU21D;64831;44.870;37.336;2023-04-28T01:46:41;14.92;67.85
76104;HTU21D;64831;44.870;37.336;2023-04-28T01:49:07;14.92;68.13
76104;HTU21D;64831;44.870;37.336;2023-04-28T01:51:33;14.93;67.98
76104;HTU21D;64831;44.870;37.336;2023-04-28T01:54:00;14.96;68.10
76104;HTU21D;64831;44.870;37.336;2023-04-28T01:56:26;14.97;68.01
76104;HTU21D;64831;44.870;37.336;2023-04-28T01:58:54;14.99;68.02
76104;HTU21D;64831;44.870;37.336;2023-04-28T02:01:20;14.98;67.90
76104;HTU21D;64831;44.870;37.336;2023-04-28T02:03:47;14.99;68.17
76104;HTU21D;64831;44.870;37.336;2023-04-28T02:06:13;15.15;68.09
76104;HTU21D;64831;44.870;37.336;2023-04-28T02:08:39;15.33;67.46
76104;HTU21D;64831;44.870;37.336;2023-04-28T02:11:05;15.47;67.07
76104;HTU21D;64831;44.870;37.336;2023-04-28T02:13:31;15.57;66.76
76104;HTU21D;64831;44.870;37.336;2023-04-28T02:16:00;15.61;66.72
76104;HTU21D;64831;44.870;37.336;2023-04-28T02:18:27;15.61;66.84
76104;HTU21D;64831;44.870;37.336;2023-04-28T02:20:53;15.61;66.88
76104;HTU21D;64831;44.870;37.336;2023-04-28T02:23:19;15.66;66.72
76104;HTU21D;64831;44.870;37.336;2023-04-28T02:25:45;15.70;66.46
76104;HTU21D;64831;44.870;37.336;2023-04-28T02:28:12;15.67;66.68
76104;HTU21D;64831;44.870;37.336;2023-04-28T02:30:38;15.67;66.46
76104;HTU21D;64831;44.870;37.336;2023-04-28T02:33:04;15.66;66.40
76104;HTU21D;64831;44.870;37.336;2023-04-28T02:35:30;15.65;66.43
76104;HTU21D;64831;44.870;37.336;2023-04-28T02:37:57;15.67;66.40
76104;HTU21D;64831;44.870;37.336;2023-04-28T02:40:23;15.71;66.30
76104;HTU21D;64831;44.870;37.336;2023-04-28T02:42:48;15.75;66.12
76104;HTU21D;64831;44.870;37.336;2023-04-28T02:45:15;15.80;65.93
76104;HTU21D;64831;44.870;37.336;2023-04-28T02:47:41;15.86;65.75
76104;HTU21D;64831;44.870;37.336;2023-04-28T02:50:07;15.93;65.13
76104;HTU21D;64831;44.870;37.336;2023-04-28T02:52:34;16.07;64.11
76104;HTU21D;64831;44.870;37.336;2023-04-28T02:55:00;16.26;63.08
76104;HTU21D;64831;44.870;37.336;2023-04-28T02:57:28;16.42;62.69
76104;HTU21D;64831;44.870;37.336;2023-04-28T02:59:54;16.54;62.14
76104;HTU21D;64831;44.870;37.336;2023-04-28T03:02:20;16.64;61.44
76104;HTU21D;64831;44.870;37.336;2023-04-28T03:04:47;16.71;61.09
76104;HTU21D;64831;44.870;37.336;2023-04-28T03:07:13;16.76;61.04
76104;HTU21D;64831;44.870;37.336;2023-04-28T03:09:40;16.78;61.01
76104;HTU21D;64831;44.870;37.336;2023-04-28T03:12:06;16.78;60.93
76104;HTU21D;64831;44.870;37.336;2023-04-28T03:14:32;16.77;60.96
76104;HTU21D;64831;44.870;37.336;2023-04-28T03:16:58;16.74;61.02
76104;HTU21D;64831;44.870;37.336;2023-04-28T03:19:24;16.74;61.21
76104;HTU21D;64831;44.870;37.336;2023-04-28T03:21:51;16.72;61.41
76104;HTU21D;64831;44.870;37.336;2023-04-28T03:24:17;16.67;61.76
76104;HTU21D;64831;44.870;37.336;2023-04-28T03:26:44;16.62;62.28
76104;HTU21D;64831;44.870;37.336;2023-04-28T03:29:09;16.58;62.57
76104;HTU21D;64831;44.870;37.336;2023-04-28T03:31:36;16.52;62.97
76104;HTU21D;64831;44.870;37.336;2023-04-28T03:34:02;16.45;63.50
76104;HTU21D;64831;44.870;37.336;2023-04-28T03:36:29;16.42;63.63
76104;HTU21D;64831;44.870;37.336;2023-04-28T03:38:59;16.36;63.78
76104;HTU21D;64831;44.870;37.336;2023-04-28T03:41:25;16.28;64.45
76104;HTU21D;64831;44.870;37.336;2023-04-28T03:44:09;16.24;64.63
76104;HTU21D;64831;44.870;37.336;2023-04-28T03:46:44;16.20;64.74
76104;HTU21D;64831;44.870;37.336;2023-04-28T03:49:11;16.16;65.05
76104;HTU21D;64831;44.870;37.336;2023-04-28T03:51:37;16.15;65.18
76104;HTU21D;64831;44.870;37.336;2023-04-28T03:54:03;16.14;65.21
76104;HTU21D;64831;44.870;37.336;2023-04-28T03:56:30;16.10;65.60
76104;HTU21D;64831;44.870;37.336;2023-04-28T03:58:59;16.04;65.63
76104;HTU21D;64831;44.870;37.336;2023-04-28T04:01:25;15.98;66.14
76104;HTU21D;64831;44.870;37.336;2023-04-28T04:03:51;15.92;66.43
76104;HTU21D;64831;44.870;37.336;2023-04-28T04:06:17;15.86;66.24
76104;HTU21D;64831;44.870;37.336;2023-04-28T04:08:43;15.84;66.35
76104;HTU21D;64831;44.870;37.336;2023-04-28T04:11:09;15.81;66.35
76104;HTU21D;64831;44.870;37.336;2023-04-28T04:13:35;15.80;66.27
76104;HTU21D;64831;44.870;37.336;2023-04-28T04:16:05;15.77;66.52
76104;HTU21D;64831;44.870;37.336;2023-04-28T04:18:32;15.75;66.51
76104;HTU21D;64831;44.870;37.336;2023-04-28T04:21:13;15.70;66.29
76104;HTU21D;64831;44.870;37.336;2023-04-28T04:23:39;15.65;66.47
76104;HTU21D;64831;44.870;37.336;2023-04-28T04:26:05;15.55;66.72
76104;HTU21D;64831;44.870;37.336;2023-04-28T04:28:32;15.47;66.88
76104;HTU21D;64831;44.870;37.336;2023-04-28T04:30:58;15.41;66.86
76104;HTU21D;64831;44.870;37.336;2023-04-28T04:33:24;15.32;67.11
76104;HTU21D;64831;44.870;37.336;2023-04-28T04:35:50;15.26;66.99
76104;HTU21D;64831;44.870;37.336;2023-04-28T04:38:16;15.21;67.20
76104;HTU21D;64831;44.870;37.336;2023-04-28T04:40:42;15.14;67.37
76104;HTU21D;64831;44.870;37.336;2023-04-28T04:43:08;15.09;67.41
76104;HTU21D;64831;44.870;37.336;2023-04-28T04:45:42;15.04;67.46
76104;HTU21D;64831;44.870;37.336;2023-04-28T04:48:08;14.99;67.36
76104;HTU21D;64831;44.870;37.336;2023-04-28T04:50:34;14.93;67.49
76104;HTU21D;64831;44.870;37.336;2023-04-28T04:53:01;14.87;67.81
76104;HTU21D;64831;44.870;37.336;2023-04-28T04:55:27;14.82;68.05
76104;HTU21D;64831;44.870;37.336;2023-04-28T04:57:53;14.79;68.23
76104;HTU21D;64831;44.870;37.336;2023-04-28T05:00:28;14.74;68.38
76104;HTU21D;64831;44.870;37.336;2023-04-28T05:02:54;14.71;68.84
76104;HTU21D;64831;44.870;37.336;2023-04-28T05:05:21;14.68;69.34
76104;HTU21D;64831;44.870;37.336;2023-04-28T05:07:53;14.68;69.19
76104;HTU21D;64831;44.870;37.336;2023-04-28T05:10:20;14.68;69.16
76104;HTU21D;64831;44.870;37.336;2023-04-28T05:12:47;14.67;69.73
76104;HTU21D;64831;44.870;37.336;2023-04-28T05:15:12;14.67;70.00
76104;HTU21D;64831;44.870;37.336;2023-04-28T05:17:46;14.67;69.87
76104;HTU21D;64831;44.870;37.336;2023-04-28T05:20:11;14.67;69.97
76104;HTU21D;64831;44.870;37.336;2023-04-28T05:22:37;14.66;69.81
76104;HTU21D;64831;44.870;37.336;2023-04-28T05:25:04;14.67;70.07
76104;HTU21D;64831;44.870;37.336;2023-04-28T05:27:30;14.64;70.53
76104;HTU21D;64831;44.870;37.336;2023-04-28T05:29:56;14.63;70.23
76104;HTU21D;64831;44.870;37.336;2023-04-28T05:32:22;14.62;69.92
76104;HTU21D;64831;44.870;37.336;2023-04-28T05:34:48;14.59;69.74
76104;HTU21D;64831;44.870;37.336;2023-04-28T05:37:14;14.54;70.16
76104;HTU21D;64831;44.870;37.336;2023-04-28T05:39:42;14.50;70.37
76104;HTU21D;64831;44.870;37.336;2023-04-28T05:42:08;14.48;70.32
76104;HTU21D;64831;44.870;37.336;2023-04-28T05:44:34;14.47;70.48
76104;HTU21D;64831;44.870;37.336;2023-04-28T05:47:00;14.50;70.79
76104;HTU21D;64831;44.870;37.336;2023-04-28T05:49:26;14.54;70.84
76104;HTU21D;64831;44.870;37.336;2023-04-28T05:51:52;14.62;70.73
76104;HTU21D;64831;44.870;37.336;2023-04-28T05:54:18;14.69;70.90
76104;HTU21D;64831;44.870;37.336;2023-04-28T05:56:47;14.73;71.04
76104;HTU21D;64831;44.870;37.336;2023-04-28T05:59:14;14.75;71.06
76104;HTU21D;64831;44.870;37.336;2023-04-28T06:01:40;14.80;71.00
76104;HTU21D;64831;44.870;37.336;2023-04-28T06:04:07;14.83;70.79
76104;HTU21D;64831;44.870;37.336;2023-04-28T06:06:33;14.86;71.61
76104;HTU21D;64831;44.870;37.336;2023-04-28T06:09:01;14.88;71.36
76104;HTU21D;64831;44.870;37.336;2023-04-28T06:11:27;14.92;71.89
76104;HTU21D;64831;44.870;37.336;2023-04-28T06:13:53;14.93;71.90
76104;HTU21D;64831;44.870;37.336;2023-04-28T06:16:18;14.96;71.48
76104;HTU21D;64831;44.870;37.336;2023-04-28T06:18:46;14.98;71.51
76104;HTU21D;64831;44.870;37.336;2023-04-28T06:21:12;15.02;71.41
76104;HTU21D;64831;44.870;37.336;2023-04-28T06:23:38;15.08;71.38
76104;HTU21D;64831;44.870;37.336;2023-04-28T06:26:05;15.09;71.19
76104;HTU21D;64831;44.870;37.336;2023-04-28T06:28:31;15.10;71.20
76104;HTU21D;64831;44.870;37.336;2023-04-28T06:30:57;15.11;71.34
76104;HTU21D;64831;44.870;37.336;2023-04-28T06:33:24;15.12;71.78
76104;HTU21D;64831;44.870;37.336;2023-04-28T06:35:51;15.13;71.60
76104;HTU21D;64831;44.870;37.336;2023-04-28T06:38:18;15.18;71.64
76104;HTU21D;64831;44.870;37.336;2023-04-28T06:40:44;15.23;72.09
76104;HTU21D;64831;44.870;37.336;2023-04-28T06:43:11;15.30;72.06
76104;HTU21D;64831;44.870;37.336;2023-04-28T06:45:52;15.37;72.02
76104;HTU21D;64831;44.870;37.336;2023-04-28T06:48:18;15.45;71.98
76104;HTU21D;64831;44.870;37.336;2023-04-28T06:50:44;15.53;71.94
76104;HTU21D;64831;44.870;37.336;2023-04-28T06:53:10;15.61;72.11
76104;HTU21D;64831;44.870;37.336;2023-04-28T06:55:36;15.71;72.27
76104;HTU21D;64831;44.870;37.336;2023-04-28T06:58:02;15.84;72.19
76104;HTU21D;64831;44.870;37.336;2023-04-28T07:00:28;15.92;72.06
76104;HTU21D;64831;44.870;37.336;2023-04-28T07:02:54;15.97;71.72
76104;HTU21D;64831;44.870;37.336;2023-04-28T07:05:20;16.01;71.47
76104;HTU21D;64831;44.870;37.336;2023-04-28T07:07:46;16.02;71.72
76104;HTU21D;64831;44.870;37.336;2023-04-28T07:10:12;16.03;71.64
76104;HTU21D;64831;44.870;37.336;2023-04-28T07:12:40;16.07;71.67
76104;HTU21D;64831;44.870;37.336;2023-04-28T07:15:06;16.10;71.68
76104;HTU21D;64831;44.870;37.336;2023-04-28T07:17:32;16.12;71.70
76104;HTU21D;64831;44.870;37.336;2023-04-28T07:19:58;16.14;71.72
76104;HTU21D;64831;44.870;37.336;2023-04-28T07:22:24;16.19;71.67
76104;HTU21D;64831;44.870;37.336;2023-04-28T07:24:50;16.27;71.71
76104;HTU21D;64831;44.870;37.336;2023-04-28T07:27:16;16.35;71.62
76104;HTU21D;64831;44.870;37.336;2023-04-28T07:29:42;16.46;71.47
76104;HTU21D;64831;44.870;37.336;2023-04-28T07:32:08;16.54;71.30
76104;HTU21D;64831;44.870;37.336;2023-04-28T07:34:35;16.61;71.28
76104;HTU21D;64831;44.870;37.336;2023-04-28T07:37:02;16.69;71.10
76104;HTU21D;64831;44.870;37.336;2023-04-28T07:39:30;16.74;70.90
76104;HTU21D;64831;44.870;37.336;2023-04-28T07:41:56;16.81;70.77
76104;HTU21D;64831;44.870;37.336;2023-04-28T07:44:23;16.95;71.35
76104;HTU21D;64831;44.870;37.336;2023-04-28T07:46:49;17.13;71.06
76104;HTU21D;64831;44.870;37.336;2023-04-28T07:49:15;17.26;70.78
76104;HTU21D;64831;44.870;37.336;2023-04-28T07:51:41;17.44;70.85
76104;HTU21D;64831;44.870;37.336;2023-04-28T07:54:07;17.63;70.48
76104;HTU21D;64831;44.870;37.336;2023-04-28T07:56:33;17.72;69.81
76104;HTU21D;64831;44.870;37.336;2023-04-28T07:58:59;17.76;69.50
76104;HTU21D;64831;44.870;37.336;2023-04-28T08:01:25;17.87;70.12
76104;HTU21D;64831;44.870;37.336;2023-04-28T08:03:51;18.29;70.68
76104;HTU21D;64831;44.870;37.336;2023-04-28T08:06:18;18.87;70.57
76104;HTU21D;64831;44.870;37.336;2023-04-28T08:08:44;19.37;68.78
76104;HTU21D;64831;44.870;37.336;2023-04-28T08:11:10;19.65;66.49
76104;HTU21D;64831;44.870;37.336;2023-04-28T08:13:36;19.83;66.90
76104;HTU21D;64831;44.870;37.336;2023-04-28T08:16:02;20.33;66.66
76104;HTU21D;64831;44.870;37.336;2023-04-28T08:18:28;20.76;65.56
76104;HTU21D;64831;44.870;37.336;2023-04-28T08:20:54;21.22;64.90
76104;HTU21D;64831;44.870;37.336;2023-04-28T08:23:20;21.69;63.76
76104;HTU21D;64831;44.870;37.336;2023-04-28T08:25:46;22.06;62.44
76104;HTU21D;64831;44.870;37.336;2023-04-28T08:28:12;22.13;60.80
76104;HTU21D;64831;44.870;37.336;2023-04-28T08:30:38;22.21;59.78
76104;HTU21D;64831;44.870;37.336;2023-04-28T08:33:04;22.04;58.88
76104;HTU21D;64831;44.870;37.336;2023-04-28T08:35:30;21.61;58.13
76104;HTU21D;64831;44.870;37.336;2023-04-28T08:37:56;21.20;58.83
76104;HTU21D;64831;44.870;37.336;2023-04-28T08:40:22;20.78;59.03
76104;HTU21D;64831;44.870;37.336;2023-04-28T08:42:50;20.27;59.41
76104;HTU21D;64831;44.870;37.336;2023-04-28T08:45:16;19.73;59.87
76104;HTU21D;64831;44.870;37.336;2023-04-28T08:47:42;19.20;60.88
76104;HTU21D;64831;44.870;37.336;2023-04-28T08:50:12;18.70;61.83
76104;HTU21D;64831;44.870;37.336;2023-04-28T08:52:39;18.29;62.72
76104;HTU21D;64831;44.870;37.336;2023-04-28T08:55:08;17.92;63.61
76104;HTU21D;64831;44.870;37.336;2023-04-28T09:00:09;17.35;65.30
76104;HTU21D;64831;44.870;37.336;2023-04-28T09:02:36;17.21;65.90
76104;HTU21D;64831;44.870;37.336;2023-04-28T09:05:10;17.11;66.80
76104;HTU21D;64831;44.870;37.336;2023-04-28T09:07:36;17.11;66.98
76104;HTU21D;64831;44.870;37.336;2023-04-28T09:10:22;17.22;67.24
76104;HTU21D;64831;44.870;37.336;2023-04-28T09:12:53;17.33;67.71
76104;HTU21D;64831;44.870;37.336;2023-04-28T09:15:31;17.46;67.39
76104;HTU21D;64831;44.870;37.336;2023-04-28T09:18:00;17.54;67.37
76104;HTU21D;64831;44.870;37.336;2023-04-28T09:20:28;17.68;68.21
76104;HTU21D;64831;44.870;37.336;2023-04-28T09:22:55;18.00;67.89
76104;HTU21D;64831;44.870;37.336;2023-04-28T09:25:22;18.38;67.94
76104;HTU21D;64831;44.870;37.336;2023-04-28T09:27:51;18.86;67.27
76104;HTU21D;64831;44.870;37.336;2023-04-28T09:30:17;19.16;66.26
76104;HTU21D;64831;44.870;37.336;2023-04-28T09:32:43;19.33;65.18
76104;HTU21D;64831;44.870;37.336;2023-04-28T09:35:09;19.42;64.69
76104;HTU21D;64831;44.870;37.336;2023-04-28T09:37:35;19.41;63.76
76104;HTU21D;64831;44.870;37.336;2023-04-28T09:40:05;19.33;63.39
76104;HTU21D;64831;44.870;37.336;2023-04-28T09:42:40;19.24;63.21
76104;HTU21D;64831;44.870;37.336;2023-04-28T09:45:10;19.11;63.21
76104;HTU21D;64831;44.870;37.336;2023-04-28T09:47:41;19.07;63.84
76104;HTU21D;64831;44.870;37.336;2023-04-28T09:50:11;19.35;63.86
76104;HTU21D;64831;44.870;37.336;2023-04-28T09:52:41;19.52;62.95
76104;HTU21D;64831;44.870;37.336;2023-04-28T09:55:07;19.37;61.60
76104;HTU21D;64831;44.870;37.336;2023-04-28T09:57:34;19.03;61.29
76104;HTU21D;64831;44.870;37.336;2023-04-28T10:00:02;18.71;62.35
76104;HTU21D;64831;44.870;37.336;2023-04-28T10:02:32;18.67;62.89
76104;HTU21D;64831;44.870;37.336;2023-04-28T10:04:59;18.84;62.63
76104;HTU21D;64831;44.870;37.336;2023-04-28T10:07:25;18.89;62.35
76104;HTU21D;64831;44.870;37.336;2023-04-28T10:09:52;18.97;61.99
76104;HTU21D;64831;44.870;37.336;2023-04-28T10:12:19;18.85;61.36
76104;HTU21D;64831;44.870;37.336;2023-04-28T10:14:46;18.57;61.72
76104;HTU21D;64831;44.870;37.336;2023-04-28T10:17:15;18.37;62.43
76104;HTU21D;64831;44.870;37.336;2023-04-28T10:19:43;18.23;62.86
76104;HTU21D;64831;44.870;37.336;2023-04-28T10:22:32;18.33;63.28
76104;HTU21D;64831;44.870;37.336;2023-04-28T10:27:43;18.70;62.73
76104;HTU21D;64831;44.870;37.336;2023-04-28T10:30:13;18.74;62.41
76104;HTU21D;64831;44.870;37.336;2023-04-28T10:32:40;18.69;62.51
76104;HTU21D;64831;44.870;37.336;2023-04-28T10:40:44;18.11;62.48
76104;HTU21D;64831;44.870;37.336;2023-04-28T10:48:19;17.87;64.46
76104;HTU21D;64831;44.870;37.336;2023-04-28T10:56:23;18.12;64.69
76104;HTU21D;64831;44.870;37.336;2023-04-28T10:58:53;18.27;64.56
76104;HTU21D;64831;44.870;37.336;2023-04-28T11:01:30;18.43;63.82
76104;HTU21D;64831;44.870;37.336;2023-04-28T11:04:05;18.42;63.39
76104;HTU21D;64831;44.870;37.336;2023-04-28T11:06:46;18.32;63.43
76104;HTU21D;64831;44.870;37.336;2023-04-28T11:14:32;17.70;64.41
76104;HTU21D;64831;44.870;37.336;2023-04-28T11:17:00;17.54;65.07
76104;HTU21D;64831;44.870;37.336;2023-04-28T11:19:31;17.62;65.56
76104;HTU21D;64831;44.870;37.336;2023-04-28T11:22:03;17.75;65.63
76104;HTU21D;64831;44.870;37.336;2023-04-28T11:24:30;17.82;65.26
76104;HTU21D;64831;44.870;37.336;2023-04-28T11:26:57;17.78;65.24
76104;HTU21D;64831;44.870;37.336;2023-04-28T11:29:37;17.72;65.72
76104;HTU21D;64831;44.870;37.336;2023-04-28T11:32:03;17.64;66.18
76104;HTU21D;64831;44.870;37.336;2023-04-28T11:34:29;17.54;65.81
76104;HTU21D;64831;44.870;37.336;2023-04-28T11:36:56;17.34;65.82
76104;HTU21D;64831;44.870;37.336;2023-04-28T11:39:26;17.15;66.06
76104;HTU21D;64831;44.870;37.336;2023-04-28T11:41:57;17.05;66.85
76104;HTU21D;64831;44.870;37.336;2023-04-28T11:44:27;17.19;67.17
76104;HTU21D;64831;44.870;37.336;2023-04-28T11:46:55;17.34;66.70
76104;HTU21D;64831;44.870;37.336;2023-04-28T11:49:22;17.37;66.04
76104;HTU21D;64831;44.870;37.336;2023-04-28T11:51:56;17.39;65.81
76104;HTU21D;64831;44.870;37.336;2023-04-28T11:54:26;17.29;65.95
76104;HTU21D;64831;44.870;37.336;2023-04-28T11:56:55;17.21;66.14
76104;HTU21D;64831;44.870;37.336;2023-04-28T11:59:26;17.16;66.58
76104;HTU21D;64831;44.870;37.336;2023-04-28T12:01:54;17.15;66.99
76104;HTU21D;64831;44.870;37.336;2023-04-28T12:09:29;17.30;67.28
76104;HTU21D;64831;44.870;37.336;2023-04-28T12:11:57;17.48;66.96
76104;HTU21D;64831;44.870;37.336;2023-04-28T12:14:24;17.53;66.60
76104;HTU21D;64831;44.870;37.336;2023-04-28T12:16:50;17.62;66.20
76104;HTU21D;64831;44.870;37.336;2023-04-28T12:19:17;17.66;65.84
76104;HTU21D;64831;44.870;37.336;2023-04-28T12:22:06;17.73;65.62
76104;HTU21D;64831;44.870;37.336;2023-04-28T12:24:32;17.74;65.39
76104;HTU21D;64831;44.870;37.336;2023-04-28T12:27:19;17.70;64.89
76104;HTU21D;64831;44.870;37.336;2023-04-28T12:29:50;17.52;64.85
76104;HTU21D;64831;44.870;37.336;2023-04-28T12:32:16;17.33;65.11
76104;HTU21D;64831;44.870;37.336;2023-04-28T12:34:46;17.08;66.33
76104;HTU21D;64831;44.870;37.336;2023-04-28T12:37:12;17.00;66.22
76104;HTU21D;64831;44.870;37.336;2023-04-28T12:39:39;16.94;66.49
76104;HTU21D;64831;44.870;37.336;2023-04-28T12:42:06;16.77;67.24
76104;HTU21D;64831;44.870;37.336;2023-04-28T12:44:33;16.69;67.05
76104;HTU21D;64831;44.870;37.336;2023-04-28T12:47:05;16.49;67.77
76104;HTU21D;64831;44.870;37.336;2023-04-28T12:49:31;16.42;67.97
76104;HTU21D;64831;44.870;37.336;2023-04-28T12:51:57;16.37;68.39
76104;HTU21D;64831;44.870;37.336;2023-04-28T12:54:23;16.37;68.60
76104;HTU21D;64831;44.870;37.336;2023-04-28T12:56:49;16.37;68.90
76104;HTU21D;64831;44.870;37.336;2023-04-28T12:59:15;16.43;68.58
76104;HTU21D;64831;44.870;37.336;2023-04-28T13:01:41;16.43;68.59
76104;HTU21D;64831;44.870;37.336;2023-04-28T13:04:07;16.40;68.69
76104;HTU21D;64831;44.870;37.336;2023-04-28T13:06:34;16.31;68.71
76104;HTU21D;64831;44.870;37.336;2023-04-28T13:09:00;16.21;68.89
76104;HTU21D;64831;44.870;37.336;2023-04-28T13:11:25;16.13;69.14
76104;HTU21D;64831;44.870;37.336;2023-04-28T13:13:52;16.06;69.58
76104;HTU21D;64831;44.870;37.336;2023-04-28T13:16:18;16.05;69.84
76104;HTU21D;64831;44.870;37.336;2023-04-28T13:18:45;16.07;69.82
76104;HTU21D;64831;44.870;37.336;2023-04-28T13:21:11;16.04;69.82
76104;HTU21D;64831;44.870;37.336;2023-04-28T13:23:37;16.03;69.88
76104;HTU21D;64831;44.870;37.336;2023-04-28T13:26:03;15.97;70.14
76104;HTU21D;64831;44.870;37.336;2023-04-28T13:28:29;15.90;70.45
76104;HTU21D;64831;44.870;37.336;2023-04-28T13:30:54;15.86;70.29
76104;HTU21D;64831;44.870;37.336;2023-04-28T13:33:20;15.81;70.85
76104;HTU21D;64831;44.870;37.336;2023-04-28T13:35:46;15.77;70.77
76104;HTU21D;64831;44.870;37.336;2023-04-28T13:38:12;15.73;70.96
76104;HTU21D;64831;44.870;37.336;2023-04-28T13:40:38;15.70;70.56
76104;HTU21D;64831;44.870;37.336;2023-04-28T13:43:04;15.61;70.86
76104;HTU21D;64831;44.870;37.336;2023-04-28T13:45:30;15.51;71.21
76104;HTU21D;64831;44.870;37.336;2023-04-28T13:47:56;15.52;70.87
76104;HTU21D;64831;44.870;37.336;2023-04-28T13:50:22;15.49;70.88
76104;HTU21D;64831;44.870;37.336;2023-04-28T13:52:48;15.52;71.13
76104;HTU21D;64831;44.870;37.336;2023-04-28T13:55:14;15.58;70.93
76104;HTU21D;64831;44.870;37.336;2023-04-28T13:57:40;15.62;70.99
76104;HTU21D;64831;44.870;37.336;2023-04-28T14:00:07;15.62;71.39
76104;HTU21D;64831;44.870;37.336;2023-04-28T14:02:33;15.69;71.38
76104;HTU21D;64831;44.870;37.336;2023-04-28T14:04:58;15.67;71.47
76104;HTU21D;64831;44.870;37.336;2023-04-28T14:07:25;15.69;71.38
76104;HTU21D;64831;44.870;37.336;2023-04-28T14:09:51;15.77;71.24
76104;HTU21D;64831;44.870;37.336;2023-04-28T14:12:17;15.80;71.35
76104;HTU21D;64831;44.870;37.336;2023-04-28T14:14:45;15.76;71.63
76104;HTU21D;64831;44.870;37.336;2023-04-28T14:17:12;15.73;71.92
76104;HTU21D;64831;44.870;37.336;2023-04-28T14:19:38;15.74;71.29
76104;HTU21D;64831;44.870;37.336;2023-04-28T14:22:04;15.76;71.19
76104;HTU21D;64831;44.870;37.336;2023-04-28T14:24:30;15.72;71.35
76104;HTU21D;64831;44.870;37.336;2023-04-28T14:26:56;15.60;71.99
76104;HTU21D;64831;44.870;37.336;2023-04-28T14:29:22;15.53;72.15
76104;HTU21D;64831;44.870;37.336;2023-04-28T14:31:48;15.49;72.27
76104;HTU21D;64831;44.870;37.336;2023-04-28T14:34:14;15.49;72.27
76104;HTU21D;64831;44.870;37.336;2023-04-28T14:36:40;15.46;72.51
76104;HTU21D;64831;44.870;37.336;2023-04-28T14:39:06;15.39;73.08
76104;HTU21D;64831;44.870;37.336;2023-04-28T14:41:32;15.29;73.65
76104;HTU21D;64831;44.870;37.336;2023-04-28T14:43:58;15.26;73.41
76104;HTU21D;64831;44.870;37.336;2023-04-28T14:46:24;15.23;73.25
76104;HTU21D;64831;44.870;37.336;2023-04-28T14:48:50;15.16;73.67
76104;HTU21D;64831;44.870;37.336;2023-04-28T14:51:19;15.02;74.77
76104;HTU21D;64831;44.870;37.336;2023-04-28T14:53:46;14.89;75.52
76104;HTU21D;64831;44.870;37.336;2023-04-28T14:56:12;14.80;75.33
76104;HTU21D;64831;44.870;37.336;2023-04-28T14:58:38;14.75;74.94
76104;HTU21D;64831;44.870;37.336;2023-04-28T15:01:04;14.71;75.12
76104;HTU21D;64831;44.870;37.336;2023-04-28T15:03:31;14.68;75.40
76104;HTU21D;64831;44.870;37.336;2023-04-28T15:05:56;14.57;76.57
76104;HTU21D;64831;44.870;37.336;2023-04-28T15:08:22;14.56;75.74
76104;HTU21D;64831;44.870;37.336;2023-04-28T15:10:48;14.54;75.83
76104;HTU21D;64831;44.870;37.336;2023-04-28T15:13:14;14.51;75.75
76104;HTU21D;64831;44.870;37.336;2023-04-28T15:15:40;14.51;75.44
76104;HTU21D;64831;44.870;37.336;2023-04-28T15:18:06;14.50;75.18
76104;HTU21D;64831;44.870;37.336;2023-04-28T15:20:32;14.50;75.06
76104;HTU21D;64831;44.870;37.336;2023-04-28T15:22:59;14.45;75.13
76104;HTU21D;64831;44.870;37.336;2023-04-28T15:25:25;14.42;75.11
76104;HTU21D;64831;44.870;37.336;2023-04-28T15:27:51;14.38;75.05
76104;HTU21D;64831;44.870;37.336;2023-04-28T15:30:18;14.34;74.92
76104;HTU21D;64831;44.870;37.336;2023-04-28T15:32:44;14.27;75.07
76104;HTU21D;64831;44.870;37.336;2023-04-28T15:35:10;14.21;75.10